SAZS

San Carlos De Bariloche Airport

San Carlos de Bariloche, Argentina
TAF SAZS 180500Z 1806/1906 16010KT 9999 SCT030 BKN100 TX11/1818Z TN01/1810Z TEMPO 1808/1813 8000 -RA BKN012 OVC035 BECMG 1813/1815 07015KT 5000 RA OVC012
Issued Valid From Valid To
Oct-18 @ 05:00 UTC
(7 hours ago)
Oct-18 @ 06:00 UTC
(6 hours ago)
Oct-19 @ 06:00 UTC
(in 18 hours)
Oct-18 @ 06:00 to Oct-18 @ 13:00
TAF SAZS 180500Z 1806/1906 16010KT 9999 SCT030 BKN100 TX11/1818Z TN01/1810Z
Wind Visibility Clouds
160° at 10 knots 10,000+ meters
  • Scattered at 3,000' AGL
  • Broken at 10,000' AGL
Temporary Oct-18 @ 08:00 to Oct-18 @ 13:00
TEMPO 1808/1813 8000 -RA BKN012 OVC035
Visibility Clouds Conditions
7,998 meters
  • Broken at 1,200' AGL
  • Overcast at 3,500' AGL
  • Light Rain
Becoming Oct-18 @ 13:00 to Oct-19 @ 06:00
BECMG 1813/1815 07015KT 5000 RA OVC012
Wind Visibility Clouds Conditions
70° at 15 knots 5,005 meters
  • Overcast at 1,200' AGL
  • Rain
TAF SAZS 180500Z 1806/1906 16010KT 9999 SCT030 BKN100 TX11/1818Z TN01/1810Z TEMPO 1808/1813 8000 -RA BKN012 OVC035 BECMG 1813/1815 07015KT 5000 RA OVC012
Issued Oct-18 @ 05:00 UTC
(7 hours ago)
Valid From Oct-18 @ 06:00 UTC
(6 hours ago)
Valid To Oct-19 @ 06:00 UTC
(in 18 hours)
Oct-18 @ 06:00 - Oct-18 @ 13:00
Wind Visibility
160° at 10 knots 10,000+ meters
Clouds
  • Scattered at 3,000' AGL
  • Broken at 10,000' AGL
Temporary Oct-18 @ 08:00 - Oct-18 @ 13:00
Clouds
  • Broken at 1,200' AGL
  • Overcast at 3,500' AGL
Conditions
  • Light Rain
Becoming Oct-18 @ 13:00 - Oct-19 @ 06:00
Wind Visibility
70° at 15 knots 5,005 meters
Clouds
  • Overcast at 1,200' AGL
Conditions
  • Rain